createdAt,value
2018-07-31T00:00:44.668Z,67.14
2018-07-31T00:01:44.915Z,67.24
2018-07-31T00:02:44.922Z,67.24
2018-07-31T00:03:44.669Z,68.01
2018-07-31T00:04:44.673Z,68.69
2018-07-31T00:05:44.972Z,69.08
2018-07-31T00:06:44.936Z,69.37
2018-07-31T00:07:44.941Z,70.04
2018-07-31T00:08:44.943Z,69.27
2018-07-31T00:09:44.954Z,69.27
2018-07-31T00:10:44.960Z,69.75
2018-07-31T00:11:44.703Z,70.43
2018-07-31T00:12:44.713Z,71.78
2018-07-31T00:13:44.706Z,71.69
2018-07-31T00:14:44.991Z,70.14
2018-07-31T00:15:44.992Z,69.37
2018-07-31T00:16:44.991Z,68.11
2018-07-31T00:17:44.987Z,68.59
2018-07-31T00:18:44.982Z,68.3
2018-07-31T00:19:44.737Z,68.3
2018-07-31T00:20:45.001Z,68.01
2018-07-31T00:21:44.734Z,68.21
2018-07-31T00:22:44.737Z,67.91
2018-07-31T00:23:44.744Z,68.11
2018-07-31T00:24:44.748Z,67.72
2018-07-31T00:25:45.009Z,68.11
2018-07-31T00:26:45.032Z,68.21
2018-07-31T00:27:45.017Z,67.63
2018-07-31T00:28:45.028Z,67.76
2018-07-31T00:29:45.021Z,67.46
2018-07-31T00:30:45.023Z,67.91
2018-07-31T00:31:44.785Z,67.82
2018-07-31T00:32:44.785Z,67.43
2018-07-31T00:33:44.791Z,67.43
2018-07-31T00:34:44.792Z,67.14
2018-07-31T00:35:45.074Z,68.79
2018-07-31T00:36:45.067Z,69.56
2018-07-31T00:37:45.042Z,71.2
2018-07-31T00:38:45.044Z,72.75
2018-07-31T00:39:44.807Z,72.75
2018-07-31T00:40:45.095Z,72.36
2018-07-31T00:41:44.808Z,71.94
2018-07-31T00:42:45.073Z,70.98
2018-07-31T00:43:45.069Z,70.4
2018-07-31T00:44:45.082Z,71.17
2018-07-31T00:45:44.837Z,72.24
2018-07-31T00:46:44.835Z,71.75
2018-07-31T00:47:44.837Z,70.01
2018-07-31T00:48:44.868Z,69.82
2018-07-31T00:49:45.097Z,70.2
2018-07-31T00:50:45.103Z,70.1
2018-07-31T00:51:45.119Z,69.92
2018-07-31T00:52:45.114Z,69.82
2018-07-31T00:53:45.108Z,70.4
2018-07-31T00:54:44.866Z,71.08
2018-07-31T00:55:45.131Z,70.98
2018-07-31T00:56:44.869Z,71.84
2018-07-31T00:57:45.125Z,70.78
2018-07-31T00:58:45.134Z,70.78
2018-07-31T00:59:45.135Z,71.66
2018-07-31T01:00:44.880Z,71.66
2018-07-31T01:01:45.138Z,70.5
2018-07-31T01:02:45.151Z,70.98
2018-07-31T01:03:45.150Z,70.3
2018-07-31T01:04:45.151Z,70.5
2018-07-31T01:05:45.175Z,70.78
2018-07-31T01:06:44.914Z,71.56
2018-07-31T01:07:45.175Z,74.17
2018-07-31T01:08:45.160Z,75
2018-07-31T01:09:44.908Z,75.39
2018-07-31T01:10:45.164Z,75.78
2018-07-31T01:11:44.911Z,75.48
2018-07-31T01:12:44.918Z,75.58
2018-07-31T01:13:44.934Z,75
2018-07-31T01:14:44.937Z,75
2018-07-31T01:15:45.188Z,75
2018-07-31T01:16:45.195Z,76.03
2018-07-31T01:17:44.936Z,77.9
2018-07-31T01:18:45.201Z,78.92
2018-07-31T01:19:44.942Z,78.64
2018-07-31T01:20:44.942Z,78.64
2018-07-31T01:21:44.946Z,78.64
2018-07-31T01:22:44.952Z,79.12
2018-07-31T01:23:45.209Z,79.5
2018-07-31T01:24:44.954Z,79.31
2018-07-31T01:25:45.214Z,78.73
2018-07-31T01:26:45.234Z,77.96
2018-07-31T01:27:45.226Z,77.28
2018-07-31T01:28:44.969Z,76.32
2018-07-31T01:29:45.228Z,76.51
2018-07-31T01:30:45.239Z,76.61
2018-07-31T01:31:45.236Z,76.61
2018-07-31T01:32:45.247Z,77.67
2018-07-31T01:33:45.244Z,78.73
2018-07-31T01:34:44.989Z,78.06
2018-07-31T01:35:45.254Z,77.67
2018-07-31T01:36:44.992Z,76.9
2018-07-31T01:37:45.268Z,76.42
2018-07-31T01:38:45.268Z,76.51
2018-07-31T01:39:45.029Z,77.38
2018-07-31T01:40:45.035Z,76.8
2018-07-31T01:41:45.011Z,76.7
2018-07-31T01:42:45.018Z,76.7
2018-07-31T01:43:45.280Z,76.32
2018-07-31T01:44:45.028Z,76.32
2018-07-31T01:45:45.358Z,77.28
2018-07-31T01:46:45.032Z,77.76
2018-07-31T01:47:45.030Z,77.96
2018-07-31T01:48:45.036Z,77.67
2018-07-31T01:49:45.297Z,77.19
2018-07-31T01:50:45.302Z,76.8
2018-07-31T01:51:45.041Z,75.93
2018-07-31T01:52:45.049Z,75.31
2018-07-31T01:53:45.299Z,75.02
2018-07-31T01:54:45.055Z,75.12
2018-07-31T01:55:45.314Z,74.64
2018-07-31T01:56:45.058Z,74.54
2018-07-31T01:57:45.063Z,74.64
2018-07-31T01:58:45.065Z,74.35
2018-07-31T01:59:45.155Z,74.64
2018-07-31T02:00:45.328Z,74.44
2018-07-31T02:01:45.339Z,74.44
2018-07-31T02:02:45.336Z,74.16
2018-07-31T02:03:45.354Z,74.54
2018-07-31T02:04:45.346Z,74.64
2018-07-31T02:05:45.348Z,75.02
2018-07-31T02:06:45.090Z,75.12
2018-07-31T02:07:45.353Z,75.31
2018-07-31T02:08:45.369Z,75.41
2018-07-31T02:09:45.108Z,75.51
2018-07-31T02:10:45.100Z,76.09
2018-07-31T02:11:45.108Z,75.89
2018-07-31T02:12:45.116Z,75.79
2018-07-31T02:13:45.368Z,77.34
2018-07-31T02:14:45.113Z,77.53
2018-07-31T02:15:45.115Z,78.11
2018-07-31T02:16:45.122Z,80.05
2018-07-31T02:17:45.397Z,80.53
2018-07-31T02:18:45.382Z,80.53
2018-07-31T02:19:45.393Z,80.62
2018-07-31T02:20:45.386Z,81.88
2018-07-31T02:21:45.135Z,81.88
2018-07-31T02:22:45.140Z,81.2
2018-07-31T02:23:45.142Z,81.2
2018-07-31T02:24:45.402Z,79.81
2018-07-31T02:25:45.151Z,79.04
2018-07-31T02:26:45.154Z,78.66
2018-07-31T02:27:45.158Z,78.75
2018-07-31T02:28:45.565Z,78.27
2018-07-31T02:29:45.180Z,77.78
2018-07-31T02:30:45.420Z,77.3
2018-07-31T02:31:45.428Z,76.43
2018-07-31T02:32:45.431Z,76.24
2018-07-31T02:33:45.443Z,75.95
2018-07-31T02:34:45.436Z,76.05
2018-07-31T02:35:45.443Z,75.95
2018-07-31T02:36:45.453Z,75.95
2018-07-31T02:37:45.436Z,75.27
2018-07-31T02:38:45.190Z,75.18
2018-07-31T02:39:45.447Z,75.27
2018-07-31T02:40:45.475Z,75.09
2018-07-31T02:41:45.192Z,75.09
2018-07-31T02:42:45.464Z,74.99
2018-07-31T02:43:45.203Z,75.27
2018-07-31T02:44:45.227Z,75.09
2018-07-31T02:45:45.214Z,75.09
2018-07-31T02:46:45.497Z,75.47
2018-07-31T02:47:45.212Z,74.89
2018-07-31T02:48:45.481Z,75.47
2018-07-31T02:49:45.474Z,75.67
2018-07-31T02:50:45.216Z,74.89
2018-07-31T02:51:45.226Z,74.99
2018-07-31T02:52:45.502Z,75.18
2018-07-31T02:53:45.230Z,75.18
2018-07-31T02:54:45.503Z,74.79
2018-07-31T02:55:45.492Z,74.6
2018-07-31T02:56:45.249Z,75.18
2018-07-31T02:57:45.237Z,75.27
2018-07-31T02:58:45.502Z,75.47
2018-07-31T02:59:45.241Z,74.89
2018-07-31T03:00:45.504Z,74.69
2018-07-31T03:01:45.251Z,74.89
2018-07-31T03:02:46.312Z,75.37
2018-07-31T03:03:45.510Z,75.47
2018-07-31T03:04:45.258Z,75.47
2018-07-31T03:05:45.279Z,75.27
2018-07-31T03:06:45.517Z,75.18
2018-07-31T03:07:45.528Z,74.99
2018-07-31T03:08:45.534Z,74.89
2018-07-31T03:09:45.540Z,74.99
2018-07-31T03:10:45.539Z,74.79
2018-07-31T03:11:45.533Z,75.18
2018-07-31T03:12:45.284Z,75.18
2018-07-31T03:13:45.587Z,75.85
2018-07-31T03:14:45.536Z,76.05
2018-07-31T03:15:45.304Z,75.37
2018-07-31T03:16:45.545Z,75.53
2018-07-31T03:17:45.553Z,76.15
2018-07-31T03:18:45.550Z,75.62
2018-07-31T03:19:45.553Z,75.82
2018-07-31T03:20:45.312Z,76.1
2018-07-31T03:21:45.561Z,76.34
2018-07-31T03:22:45.570Z,76.1
2018-07-31T03:23:45.567Z,76.5
2018-07-31T03:24:45.320Z,76.1
2018-07-31T03:25:45.580Z,76.5
2018-07-31T03:26:45.571Z,76.72
2018-07-31T03:27:45.337Z,76.2
2018-07-31T03:28:45.328Z,76.72
2018-07-31T03:29:45.328Z,76.5
2018-07-31T03:30:45.329Z,77.26
2018-07-31T03:31:45.591Z,77.3
2018-07-31T03:32:45.330Z,76.82
2018-07-31T03:33:45.589Z,76.72
2018-07-31T03:34:45.617Z,76.72
2018-07-31T03:35:45.600Z,76.53
2018-07-31T03:36:45.603Z,76.15
2018-07-31T03:37:45.348Z,76.82
2018-07-31T03:38:45.602Z,76.43
2018-07-31T03:39:45.606Z,76.34
2018-07-31T03:40:45.359Z,76.82
2018-07-31T03:41:45.370Z,77.21
2018-07-31T03:42:45.616Z,77.4
2018-07-31T03:43:45.374Z,77.11
2018-07-31T03:44:45.364Z,77.11
2018-07-31T03:45:45.628Z,77.3
2018-07-31T03:46:45.363Z,77.11
2018-07-31T03:47:45.627Z,77.4
2018-07-31T03:48:45.379Z,77.3
2018-07-31T03:49:45.392Z,76.72
2018-07-31T03:50:45.675Z,76.72
2018-07-31T03:51:45.642Z,77.3
2018-07-31T03:52:45.643Z,76.72
2018-07-31T03:53:45.411Z,76.24
2018-07-31T03:54:45.390Z,76.92
2018-07-31T03:55:45.394Z,76.43
2018-07-31T03:56:45.664Z,76.72
2018-07-31T03:57:45.398Z,77.21
2018-07-31T03:58:45.653Z,77.01
2018-07-31T03:59:45.656Z,76.82
2018-07-31T04:00:45.663Z,77.4
2018-07-31T04:01:45.406Z,77.3
2018-07-31T04:02:45.674Z,77.4
2018-07-31T04:03:45.457Z,77.11
2018-07-31T04:04:45.852Z,77.3
2018-07-31T04:05:45.677Z,77.69
2018-07-31T04:06:45.428Z,77.88
2018-07-31T04:07:45.427Z,77.4
2018-07-31T04:08:45.704Z,77.88
2018-07-31T04:09:45.697Z,78.08
2018-07-31T04:10:45.689Z,77.59
2018-07-31T04:11:45.449Z,77.21
2018-07-31T04:12:45.702Z,77.4
2018-07-31T04:13:45.454Z,77.11
2018-07-31T04:14:45.701Z,77.11
2018-07-31T04:15:45.717Z,77.5
2018-07-31T04:16:45.477Z,77.88
2018-07-31T04:17:45.722Z,78.17
2018-07-31T04:18:45.466Z,77.88
2018-07-31T04:19:45.465Z,77.78
2018-07-31T04:20:45.713Z,78.36
2018-07-31T04:21:45.721Z,78.56
2018-07-31T04:22:45.465Z,78.46
2018-07-31T04:23:45.467Z,78.46
2018-07-31T04:24:45.724Z,78.66
2018-07-31T04:25:45.748Z,78.66
2018-07-31T04:26:45.741Z,78.08
2018-07-31T04:27:45.761Z,78.11
2018-07-31T04:28:45.743Z,76.95
2018-07-31T04:29:45.490Z,76.57
2018-07-31T04:30:45.487Z,76.22
2018-07-31T04:31:45.759Z,75.35
2018-07-31T04:32:45.752Z,74.87
2018-07-31T04:33:45.759Z,75.16
2018-07-31T04:34:45.509Z,74.87
2018-07-31T04:35:45.809Z,74.32
2018-07-31T04:36:45.761Z,74.23
2018-07-31T04:37:45.770Z,73.84
2018-07-31T04:38:45.513Z,73.74
2018-07-31T04:39:45.532Z,73.55
2018-07-31T04:40:45.525Z,72.78
2018-07-31T04:41:45.801Z,73.3
2018-07-31T04:42:45.798Z,73.39
2018-07-31T04:43:45.789Z,72.42
2018-07-31T04:44:45.806Z,72.04
2018-07-31T04:45:45.801Z,71.78
2018-07-31T04:46:45.549Z,71.78
2018-07-31T04:47:45.813Z,71.4
2018-07-31T04:48:45.806Z,70.34
2018-07-31T04:49:45.822Z,70.92
2018-07-31T04:50:45.569Z,71.3
2018-07-31T04:51:45.844Z,71.2
2018-07-31T04:52:45.589Z,71.2
2018-07-31T04:53:45.583Z,70.82
2018-07-31T04:54:45.598Z,70.24
2018-07-31T04:55:45.589Z,69.75
2018-07-31T04:56:45.637Z,68.91
2018-07-31T04:57:45.846Z,68.15
2018-07-31T04:58:45.854Z,67.88
2018-07-31T04:59:45.613Z,66.72
2018-07-31T05:00:45.868Z,66.72
2018-07-31T05:01:45.614Z,65.89
2018-07-31T05:02:45.873Z,65.11
2018-07-31T05:03:45.623Z,64.85
2018-07-31T05:04:45.640Z,64.95
2018-07-31T05:05:45.888Z,64.47
2018-07-31T05:06:45.661Z,64.47
2018-07-31T05:07:45.922Z,63.78
2018-07-31T05:08:45.914Z,63.72
2018-07-31T05:09:45.909Z,62.85
2018-07-31T05:10:45.676Z,62.46
2018-07-31T05:11:45.659Z,61.88
2018-07-31T05:12:45.925Z,62.1
2018-07-31T05:13:45.937Z,61.42
2018-07-31T05:14:45.678Z,61.22
2018-07-31T05:15:45.949Z,60.97
2018-07-31T05:16:45.938Z,60.77
2018-07-31T05:17:45.946Z,60
2018-07-31T05:18:45.955Z,59.05
2018-07-31T05:19:45.954Z,59.08
2018-07-31T05:20:45.990Z,58.76
2018-07-31T05:21:45.714Z,57.92
2018-07-31T05:22:45.977Z,57.82
2018-07-31T05:23:46.002Z,57.53
2018-07-31T05:24:45.988Z,57.72
2018-07-31T05:25:45.999Z,57.72
2018-07-31T05:26:45.999Z,57.82
2018-07-31T05:27:46.012Z,57.23
2018-07-31T05:28:46.013Z,56.39
2018-07-31T05:29:46.022Z,56.77
2018-07-31T05:30:46.029Z,56.77
2018-07-31T05:31:46.058Z,56
2018-07-31T05:32:46.287Z,56.29
2018-07-31T05:33:46.050Z,56.03
2018-07-31T05:34:46.052Z,55.35
2018-07-31T05:35:46.061Z,55.25
2018-07-31T05:36:45.807Z,54.57
2018-07-31T05:37:46.074Z,54.21
2018-07-31T05:38:46.084Z,53.75
2018-07-31T05:39:45.830Z,54.03
2018-07-31T05:40:46.096Z,53.23
2018-07-31T05:41:46.094Z,53.65
2018-07-31T05:42:45.856Z,53.26
2018-07-31T05:43:46.120Z,53.26
2018-07-31T05:44:46.126Z,53.06
2018-07-31T05:45:46.133Z,52.67
2018-07-31T05:46:45.887Z,52.38
2018-07-31T05:47:45.893Z,52.02
2018-07-31T05:48:46.150Z,51.73
2018-07-31T05:49:46.157Z,51.82
2018-07-31T05:50:45.909Z,51.92
2018-07-31T05:51:46.188Z,52.02
2018-07-31T05:52:46.179Z,51.92
2018-07-31T05:53:45.938Z,51.63
2018-07-31T05:54:46.192Z,51.24
2018-07-31T05:55:46.204Z,51.07
2018-07-31T05:56:46.208Z,51.07
2018-07-31T05:57:45.959Z,50.29
2018-07-31T05:58:45.966Z,50.38
2018-07-31T05:59:46.225Z,49.73
2018-07-31T06:00:45.979Z,49.61
2018-07-31T06:01:45.987Z,49.05
2018-07-31T06:02:45.997Z,48.68
2018-07-31T06:03:46.262Z,47.9
2018-07-31T06:04:46.272Z,48.1
2018-07-31T06:05:46.035Z,47.61
2018-07-31T06:06:46.038Z,47.53
2018-07-31T06:07:46.298Z,46.66
2018-07-31T06:08:46.296Z,46.58
2018-07-31T06:09:46.316Z,46.68
2018-07-31T06:10:46.313Z,46.39
2018-07-31T06:11:46.067Z,46.09
2018-07-31T06:12:46.355Z,46.11
2018-07-31T06:13:46.362Z,45.92
2018-07-31T06:14:46.113Z,45.53
2018-07-31T06:15:46.361Z,45.23
2018-07-31T06:16:46.103Z,45.14
2018-07-31T06:17:46.114Z,45.04
2018-07-31T06:18:46.383Z,45.53
2018-07-31T06:19:46.400Z,45.04
2018-07-31T06:20:46.400Z,44.96
2018-07-31T06:21:46.407Z,44.38
2018-07-31T06:22:46.154Z,44.96
2018-07-31T06:23:46.418Z,44.77
2018-07-31T06:24:46.169Z,44.18
2018-07-31T06:25:46.449Z,44.2
2018-07-31T06:26:46.449Z,44.3
2018-07-31T06:27:46.471Z,43.42
2018-07-31T06:28:46.474Z,43.62
2018-07-31T06:29:46.210Z,43.62
2018-07-31T06:30:46.496Z,42.93
2018-07-31T06:31:46.232Z,42.66
2018-07-31T06:32:46.558Z,41.88
2018-07-31T06:33:48.110Z,42.36
2018-07-31T06:34:46.519Z,42.56
2018-07-31T06:35:46.271Z,42.95
2018-07-31T06:36:46.532Z,42.36
2018-07-31T06:37:46.539Z,41.99
2018-07-31T06:38:46.548Z,41.5
2018-07-31T06:39:46.308Z,41.33
2018-07-31T06:40:46.576Z,41.23
2018-07-31T06:41:46.324Z,41.7
2018-07-31T06:42:46.590Z,42.19
2018-07-31T06:43:46.609Z,41.6
2018-07-31T06:44:46.359Z,41.33
2018-07-31T06:45:46.638Z,41.13
2018-07-31T06:46:46.620Z,40.56
2018-07-31T06:47:46.647Z,40.29
2018-07-31T06:48:46.660Z,40.09
2018-07-31T06:49:46.392Z,39.41
2018-07-31T06:50:46.412Z,39.33
2018-07-31T06:51:46.436Z,39.23
2018-07-31T06:52:46.681Z,39.33
2018-07-31T06:53:46.679Z,39.53
2018-07-31T06:54:46.709Z,39.61
2018-07-31T06:55:46.444Z,39.7
2018-07-31T06:56:46.763Z,39.7
2018-07-31T06:57:46.722Z,39.7
2018-07-31T06:58:46.479Z,39.33
2018-07-31T06:59:46.489Z,39.23
2018-07-31T07:00:46.746Z,38.93
2018-07-31T07:01:46.765Z,38.96
2018-07-31T07:02:46.525Z,38.66
2018-07-31T07:03:46.776Z,38.48
2018-07-31T07:04:46.796Z,37.9
2018-07-31T07:05:46.536Z,37.8
2018-07-31T07:06:46.549Z,37.7
2018-07-31T07:07:46.823Z,37.4
2018-07-31T07:08:46.821Z,38.01
2018-07-31T07:09:46.833Z,38.01
2018-07-31T07:10:46.841Z,37.92
2018-07-31T07:11:46.597Z,37.62
2018-07-31T07:12:46.605Z,37.03
2018-07-31T07:13:46.877Z,37.34
2018-07-31T07:14:46.889Z,36.75
2018-07-31T07:15:46.641Z,37.05
2018-07-31T07:16:46.902Z,37.84
2018-07-31T07:17:46.659Z,37.82
2018-07-31T07:18:46.679Z,37.52
2018-07-31T07:19:46.936Z,37.62
2018-07-31T07:20:46.953Z,38.58
2018-07-31T07:21:46.959Z,39.07
2018-07-31T07:22:46.711Z,39.15
2018-07-31T07:23:46.977Z,40.29
2018-07-31T07:24:46.989Z,40.68
2018-07-31T07:25:46.734Z,41.35
2018-07-31T07:26:46.748Z,41.33
2018-07-31T07:27:47.061Z,41.33
2018-07-31T07:28:46.762Z,41.52
2018-07-31T07:29:46.772Z,42.02
2018-07-31T07:30:46.789Z,42.31
2018-07-31T07:31:46.810Z,41.72
2018-07-31T07:32:46.799Z,41.23
2018-07-31T07:33:47.242Z,40.29
2018-07-31T07:34:47.118Z,40.21
2018-07-31T07:35:47.094Z,38.46
2018-07-31T07:36:46.851Z,38.68
2018-07-31T07:37:46.854Z,38.68
2018-07-31T07:38:46.849Z,37.82
2018-07-31T07:39:46.916Z,36.65
2018-07-31T07:40:47.131Z,35.78
2018-07-31T07:41:47.142Z,35.03
2018-07-31T07:42:47.147Z,34.75
2018-07-31T07:43:46.899Z,34.27
2018-07-31T07:44:47.159Z,34.66
2018-07-31T07:45:47.175Z,35.25
2018-07-31T07:46:46.926Z,35.03
2018-07-31T07:47:47.192Z,36.02
2018-07-31T07:48:46.944Z,35.72
2018-07-31T07:49:47.215Z,35.44
2018-07-31T07:50:46.968Z,35.27
2018-07-31T07:51:47.235Z,34.38
2018-07-31T07:52:47.243Z,34
2018-07-31T07:53:47.318Z,34
2018-07-31T07:54:47.265Z,34.49
2018-07-31T07:55:47.027Z,34.18
2018-07-31T07:56:47.278Z,34.1
2018-07-31T07:57:47.293Z,34.39
2018-07-31T07:58:47.304Z,33.31
2018-07-31T07:59:47.064Z,33.31
2018-07-31T08:00:47.064Z,33.51
2018-07-31T08:01:47.349Z,33.53
2018-07-31T08:02:47.356Z,33.82
2018-07-31T08:03:47.466Z,32.93
2018-07-31T08:04:47.122Z,32.44
2018-07-31T08:05:47.119Z,32.73
2018-07-31T08:06:47.388Z,32.56
2018-07-31T08:07:47.145Z,32.56
2018-07-31T08:08:47.405Z,32.73
2018-07-31T08:09:47.491Z,32.24
2018-07-31T08:10:47.432Z,32.45
2018-07-31T08:11:47.442Z,32.56
2018-07-31T08:12:47.453Z,33.04
2018-07-31T08:13:47.212Z,32.56
2018-07-31T08:14:47.480Z,32.95
2018-07-31T08:15:47.489Z,32.65
2018-07-31T08:16:47.235Z,32.35
2018-07-31T08:17:47.256Z,33.54
2018-07-31T08:18:47.265Z,33.92
2018-07-31T08:19:47.526Z,34.49
2018-07-31T08:20:47.540Z,34
2018-07-31T08:21:47.563Z,33.62
2018-07-31T08:22:47.562Z,33.33
2018-07-31T08:23:47.570Z,33.54
2018-07-31T08:24:47.587Z,33.23
2018-07-31T08:25:47.606Z,32.84
2018-07-31T08:26:47.607Z,33.03
2018-07-31T08:27:47.397Z,32.54
2018-07-31T08:28:47.627Z,33.25
2018-07-31T08:29:47.641Z,33.04
2018-07-31T08:30:47.397Z,32.95
2018-07-31T08:31:47.670Z,32.35
2018-07-31T08:32:47.416Z,32.65
2018-07-31T08:33:47.684Z,32.18
2018-07-31T08:34:47.697Z,32.37
2018-07-31T08:35:47.697Z,32.57
2018-07-31T08:36:47.708Z,33.26
2018-07-31T08:37:47.733Z,32.37
2018-07-31T08:38:47.733Z,31.68
2018-07-31T08:39:47.747Z,31.09
2018-07-31T08:40:47.756Z,32.68
2018-07-31T08:41:47.777Z,31.3
2018-07-31T08:42:47.524Z,31.01
2018-07-31T08:43:47.540Z,31.32
2018-07-31T08:44:47.541Z,31.6
2018-07-31T08:45:47.553Z,31.38
2018-07-31T08:46:47.568Z,31.19
2018-07-31T08:47:47.836Z,32.47
2018-07-31T08:48:47.848Z,32.57
2018-07-31T08:49:47.862Z,32.28
2018-07-31T08:50:47.859Z,30.21
2018-07-31T08:51:47.641Z,30.13
2018-07-31T08:52:47.633Z,29.85
2018-07-31T08:53:47.650Z,30.04
2018-07-31T08:54:47.912Z,29.74
2018-07-31T08:55:47.702Z,30.5
2018-07-31T08:56:47.965Z,31.17
2018-07-31T08:57:47.690Z,32.73
2018-07-31T08:58:47.957Z,33.49
2018-07-31T08:59:47.960Z,35.21
2018-07-31T09:00:47.718Z,36.08
2018-07-31T09:01:47.994Z,37.32
2018-07-31T09:02:48.125Z,37.11
2018-07-31T09:03:48.010Z,38.58
2018-07-31T09:04:48.031Z,38.66
2018-07-31T09:05:48.031Z,38.25
2018-07-31T09:06:47.790Z,36.78
2018-07-31T09:07:47.804Z,37.74
2018-07-31T09:08:47.820Z,39.19
2018-07-31T09:09:48.068Z,38.8
2018-07-31T09:10:47.864Z,38.7
2018-07-31T09:11:47.846Z,37.33
2018-07-31T09:12:47.857Z,37.73
2018-07-31T09:13:47.849Z,39.37
2018-07-31T09:14:48.169Z,38.68
2018-07-31T09:15:48.126Z,38.18
2018-07-31T09:16:48.136Z,38.47
2018-07-31T09:17:48.147Z,39.35
2018-07-31T09:18:48.151Z,38.28
2018-07-31T09:19:48.957Z,37.98
2018-07-31T09:20:48.193Z,38.57
2018-07-31T09:21:47.916Z,37.59
2018-07-31T09:22:47.919Z,38.49
2018-07-31T09:23:48.187Z,38.88
2018-07-31T09:24:48.013Z,37.04
2018-07-31T09:25:48.232Z,37.12
2018-07-31T09:26:48.212Z,37.81
2018-07-31T09:27:48.248Z,37.31
2018-07-31T09:28:48.231Z,36.92
2018-07-31T09:29:47.989Z,37.81
2018-07-31T09:30:48.405Z,37.04
2018-07-31T09:31:48.277Z,36.65
2018-07-31T09:32:48.260Z,37.13
2018-07-31T09:33:48.261Z,36.65
2018-07-31T09:34:48.357Z,36.55
2018-07-31T09:35:48.294Z,36.25
2018-07-31T09:36:48.034Z,36.06
2018-07-31T09:37:48.296Z,36.84
2018-07-31T09:38:48.302Z,37.04
2018-07-31T09:39:48.317Z,37.92
2018-07-31T09:40:48.318Z,38.6
2018-07-31T09:41:48.068Z,38.41
2018-07-31T09:42:48.501Z,35.37
2018-07-31T09:43:48.083Z,34.21
2018-07-31T09:44:48.085Z,35
2018-07-31T09:45:48.355Z,34.61
2018-07-31T09:46:48.362Z,34.8
2018-07-31T09:47:48.361Z,36.37
2018-07-31T09:48:48.369Z,34.23
2018-07-31T09:49:48.134Z,33.05
2018-07-31T09:50:48.383Z,32.28
2018-07-31T09:51:48.140Z,33.46
2018-07-31T09:52:48.415Z,31.6
2018-07-31T09:53:48.155Z,32.57
2018-07-31T09:54:48.420Z,35.23
2018-07-31T09:55:48.162Z,36.3
2018-07-31T09:56:48.427Z,35.42
2018-07-31T09:57:48.440Z,32.78
2018-07-31T09:58:48.193Z,35.64
2018-07-31T09:59:48.455Z,34.85
2018-07-31T10:00:48.459Z,30.52
2018-07-31T10:01:48.211Z,29.85
2018-07-31T10:02:48.215Z,32.57
2018-07-31T10:03:48.484Z,30.52
2018-07-31T10:04:48.241Z,29.45
2018-07-31T10:05:48.242Z,31.6
2018-07-31T10:06:48.511Z,34.34
2018-07-31T10:07:48.531Z,34.15
2018-07-31T10:08:48.528Z,32.48
2018-07-31T10:09:48.548Z,36.99
2018-07-31T10:10:48.533Z,30.43
2018-07-31T10:11:48.730Z,29.35
2018-07-31T10:12:48.305Z,28.96
2018-07-31T10:13:48.552Z,33.28
2018-07-31T10:14:48.561Z,29.85
2018-07-31T10:15:48.581Z,30.73
2018-07-31T10:16:48.583Z,30.15
2018-07-31T10:17:48.825Z,33.79
2018-07-31T10:18:48.610Z,28.59
2018-07-31T10:19:49.451Z,27.91
2018-07-31T10:20:48.607Z,27.42
2018-07-31T10:21:48.617Z,27.91
2018-07-31T10:22:48.633Z,29.76
2018-07-31T10:23:48.382Z,29.86
2018-07-31T10:24:48.649Z,28.78
2018-07-31T10:25:48.647Z,28.97
2018-07-31T10:26:48.658Z,28.39
2018-07-31T10:27:48.664Z,30.04
2018-07-31T10:28:48.671Z,29.35
2018-07-31T10:29:48.680Z,28.68
2018-07-31T10:30:48.967Z,28.49
2018-07-31T10:31:48.687Z,27.8
2018-07-31T10:32:48.443Z,28.19
2018-07-31T10:33:48.708Z,28.39
2018-07-31T10:34:48.715Z,28.29
2018-07-31T10:35:48.468Z,28
2018-07-31T10:36:48.730Z,28
2018-07-31T10:37:48.829Z,27.42
2018-07-31T10:38:48.749Z,27.42
2018-07-31T10:39:48.492Z,29.87
2018-07-31T10:40:48.763Z,29.77
2018-07-31T10:41:48.515Z,27.61
2018-07-31T10:42:48.776Z,27.32
2018-07-31T10:43:48.535Z,28
2018-07-31T10:44:48.537Z,28.3
2018-07-31T10:45:48.536Z,30.56
2018-07-31T10:46:48.552Z,31.54
2018-07-31T10:47:48.819Z,30.76
2018-07-31T10:48:48.825Z,28
2018-07-31T10:49:48.830Z,28.12
2018-07-31T10:50:48.585Z,27.14
2018-07-31T10:51:48.862Z,27.43
2018-07-31T10:52:48.864Z,27.43
2018-07-31T10:53:48.865Z,28.02
2018-07-31T10:54:48.614Z,27.82
2018-07-31T10:55:48.625Z,28
2018-07-31T10:56:48.934Z,28.79
2018-07-31T10:57:48.942Z,33.61
2018-07-31T10:58:49.008Z,33.12
2018-07-31T10:59:48.739Z,28.3
2018-07-31T11:00:48.938Z,28.11
2018-07-31T11:01:48.668Z,28.11
2018-07-31T11:02:49.068Z,28.69
2018-07-31T11:03:49.088Z,34.89
2018-07-31T11:04:48.945Z,29.58
2018-07-31T11:05:48.695Z,28.79
2018-07-31T11:06:48.720Z,28.68
2018-07-31T11:07:48.975Z,27.71
2018-07-31T11:08:48.974Z,27.42
2018-07-31T11:09:48.736Z,27.14
2018-07-31T11:10:48.996Z,28.22
2018-07-31T11:11:48.736Z,27.92
2018-07-31T11:12:49.010Z,28.02
2018-07-31T11:13:49.013Z,28.61
2018-07-31T11:14:49.022Z,28.22
2018-07-31T11:15:48.777Z,27.72
2018-07-31T11:16:48.777Z,27.61
2018-07-31T11:17:49.034Z,27.04
2018-07-31T11:18:49.046Z,27.14
2018-07-31T11:19:48.810Z,27.14
2018-07-31T11:20:49.093Z,26.74
2018-07-31T11:21:49.080Z,26.74
2018-07-31T11:22:48.823Z,26.84
2018-07-31T11:23:48.840Z,26.84
2018-07-31T11:24:49.104Z,26.93
2018-07-31T11:25:49.101Z,26.84
2018-07-31T11:26:49.111Z,26.73
2018-07-31T11:27:48.859Z,27.02
2018-07-31T11:28:49.145Z,26.92
2018-07-31T11:29:48.870Z,27.42
2018-07-31T11:30:49.138Z,26.53
2018-07-31T11:31:48.892Z,26.24
2018-07-31T11:32:49.154Z,30.07
2018-07-31T11:33:49.183Z,30.66
2018-07-31T11:34:49.185Z,29.1
2018-07-31T11:35:48.926Z,27.92
2018-07-31T11:36:48.925Z,29.49
2018-07-31T11:37:48.927Z,28.51
2018-07-31T11:38:49.212Z,28.12
2018-07-31T11:39:48.948Z,28.12
2018-07-31T11:40:49.213Z,27.25
2018-07-31T11:41:48.968Z,27.34
2018-07-31T11:42:49.234Z,26.85
2018-07-31T11:43:49.247Z,26.57
2018-07-31T11:44:48.979Z,26.08
2018-07-31T11:45:48.987Z,26.07
2018-07-31T11:46:49.259Z,25.96
2018-07-31T11:47:49.009Z,26.46
2018-07-31T11:48:49.026Z,26.85
2018-07-31T11:49:49.364Z,26.65
2018-07-31T11:50:49.290Z,26.17
2018-07-31T11:51:49.299Z,25.85
2018-07-31T11:52:49.292Z,26.07
2018-07-31T11:53:49.059Z,25.96
2018-07-31T11:54:49.312Z,26.36
2018-07-31T11:55:49.322Z,26.35
2018-07-31T11:56:49.331Z,26.84
2018-07-31T11:57:49.339Z,26.74
2018-07-31T11:58:49.090Z,28.4
2018-07-31T11:59:49.342Z,26.82
2018-07-31T12:00:49.359Z,26.81
2018-07-31T12:01:49.154Z,26.73
2018-07-31T12:02:49.366Z,26.63
2018-07-31T12:03:49.381Z,26.63
2018-07-31T12:04:49.411Z,26.63
2018-07-31T12:05:49.397Z,25.66
2018-07-31T12:06:49.420Z,25.95
2018-07-31T12:07:49.400Z,26.15
2018-07-31T12:08:49.413Z,25.67
2018-07-31T12:09:49.187Z,25.48
2018-07-31T12:10:49.187Z,26.95
2018-07-31T12:11:49.440Z,25.67
2018-07-31T12:12:49.460Z,25.87
2018-07-31T12:13:49.561Z,26.07
2018-07-31T12:14:49.209Z,27.05
2018-07-31T12:15:49.497Z,28.03
2018-07-31T12:16:49.474Z,25.85
2018-07-31T12:17:49.481Z,25.85
2018-07-31T12:18:49.485Z,25.46
2018-07-31T12:19:49.492Z,25.76
2018-07-31T12:20:49.292Z,25.28
2018-07-31T12:21:49.510Z,24.98
2018-07-31T12:22:49.273Z,24.4
2018-07-31T12:23:49.572Z,24.19
2018-07-31T12:24:49.276Z,24.19
2018-07-31T12:25:49.284Z,24.01
2018-07-31T12:26:49.556Z,24.01
2018-07-31T12:27:49.295Z,23.91
2018-07-31T12:28:49.574Z,24.19
2018-07-31T12:29:49.310Z,24.4
2018-07-31T12:30:49.325Z,24.49
2018-07-31T12:31:49.336Z,24.88
2018-07-31T12:32:49.774Z,24
2018-07-31T12:33:49.338Z,24.3
2018-07-31T12:34:49.611Z,23.82
2018-07-31T12:35:49.618Z,23.24
2018-07-31T12:36:49.368Z,23.62
2018-07-31T12:37:49.636Z,23.53
2018-07-31T12:38:49.638Z,23.04
2018-07-31T12:39:49.383Z,23.24
2018-07-31T12:40:49.399Z,22.74
2018-07-31T12:41:49.407Z,22.74
2018-07-31T12:42:49.674Z,22.94
2018-07-31T12:43:49.693Z,22.64
2018-07-31T12:44:49.679Z,23.04
2018-07-31T12:45:49.694Z,22.84
2018-07-31T12:46:49.706Z,23.42
2018-07-31T12:47:49.703Z,23.33
2018-07-31T12:48:49.715Z,23.03
2018-07-31T12:49:49.467Z,22.73
2018-07-31T12:50:49.471Z,23.04
2018-07-31T12:51:49.731Z,22.93
2018-07-31T12:52:49.484Z,22.93
2018-07-31T12:53:49.753Z,23.62
2018-07-31T12:54:49.762Z,23.32
2018-07-31T12:55:49.764Z,23.22
2018-07-31T12:56:49.788Z,23.93